Time;durP1;ratioP1;P1;durP2;ratioP2;P2;SDS_P1;SDS_P2;PMS_P1;PMS_P2;Temp;Humidity;BMP_temperature;BMP_pressure;BME280_temperature;BME280_humidity;BME280_pressure;Samples;Min_cycle;Max_cycle;Signal;HPM_P1;HPM_P2
2021/05/30 00:02:35;;;;;;;4.70;2.97;;;;;;;13.13;65.92;101270.59;5036564;28;20052;-65
2021/05/30 00:05:19;;;;;;;3.00;2.47;;;;;;;13.18;66.49;101275.53;5036131;28;20422;-64
2021/05/30 00:08:04;;;;;;;3.72;2.40;;;;;;;13.11;66.19;101280.59;5036031;28;20047;-64
2021/05/30 00:10:48;;;;;;;3.60;2.47;;;;;;;13.13;66.92;101275.09;5035330;28;20053;-65
2021/05/30 00:13:33;;;;;;;4.93;2.65;;;;;;;13.09;66.64;101279.91;5036010;28;20079;-64
2021/05/30 00:16:16;;;;;;;5.63;2.35;;;;;;;13.11;66.69;101272.56;5035941;28;20099;-65
2021/05/30 00:19:01;;;;;;;3.90;2.72;;;;;;;13.07;66.74;101273.81;5021406;28;20187;-64
2021/05/30 00:21:45;;;;;;;3.28;2.95;;;;;;;13.08;67.14;101270.16;5020865;28;20045;-64
2021/05/30 00:24:29;;;;;;;;;;;;;;;13.06;67.23;101274.78;5036494;28;20470;-65
2021/05/30 00:27:13;;;;;;;6.38;2.83;;;;;;;13.03;66.99;101274.22;5034940;28;19963;-66
2021/05/30 00:29:57;;;;;;;5.57;3.08;;;;;;;13.02;67.32;101280.53;5034648;28;20048;-65
2021/05/30 00:32:41;;;;;;;2.80;2.50;;;;;;;13.03;67.55;101271.53;5035655;28;20052;-65
2021/05/30 00:35:25;;;;;;;5.45;2.95;;;;;;;13.03;67.29;101271.53;5035192;28;20184;-65
2021/05/30 00:38:09;;;;;;;4.32;2.83;;;;;;;13.02;67.29;101281.41;5035789;28;20057;-64
2021/05/30 00:40:53;;;;;;;3.13;2.67;;;;;;;12.96;67.88;101283.78;5035483;28;20144;-64
2021/05/30 00:43:50;;;;;;;3.35;2.60;;;;;;;12.93;67.86;101278.69;5020445;28;20548;-65
2021/05/30 00:46:34;;;;;;;4.28;3.15;;;;;;;12.91;68.33;101278.81;5020725;28;20198;-65
2021/05/30 00:49:19;;;;;;;3.80;2.53;;;;;;;12.92;68.46;101285.84;5019701;28;20532;-65
2021/05/30 00:52:04;;;;;;;4.88;2.80;;;;;;;12.93;68.61;101287.56;5035286;28;20083;-65
2021/05/30 00:54:48;;;;;;;3.53;2.55;;;;;;;12.93;68.39;101286.69;5034467;28;20056;-65
2021/05/30 00:57:32;;;;;;;5.43;2.92;;;;;;;12.92;68.43;101290.34;5034181;28;20053;-65
2021/05/30 01:00:17;;;;;;;5.25;3.40;;;;;;;12.90;68.52;101292.31;5034136;28;20084;-65
2021/05/30 01:03:01;;;;;;;5.93;3.00;;;;;;;12.84;68.51;101293.69;5020449;28;20126;-65
2021/05/30 01:05:47;;;;;;;7.32;3.53;;;;;;;12.86;68.87;101291.72;5035298;28;20613;-65
2021/05/30 01:08:31;;;;;;;4.20;2.95;;;;;;;12.80;68.91;101285.22;5020222;28;20128;-65
2021/05/30 01:11:15;;;;;;;3.45;2.80;;;;;;;12.77;69.30;101293.50;5033904;28;20586;-64
2021/05/30 01:14:00;;;;;;;5.13;3.10;;;;;;;12.67;69.63;101290.78;5020167;28;20129;-65
2021/05/30 01:16:44;;;;;;;4.43;3.10;;;;;;;12.61;70.22;101296.66;5033922;28;20096;-65
2021/05/30 01:19:31;;;;;;;6.10;3.42;;;;;;;12.56;70.75;101293.56;5033922;28;20132;-64
2021/05/30 01:22:15;;;;;;;3.53;3.00;;;;;;;12.48;70.92;101293.34;5033955;28;20048;-65
2021/05/30 01:24:59;;;;;;;;;;;;;;;12.42;71.38;101299.25;5034613;28;20095;-65
2021/05/30 01:27:43;;;;;;;4.87;3.33;;;;;;;12.34;71.82;101291.03;5034831;28;19924;-63
2021/05/30 01:30:27;;;;;;;3.63;2.92;;;;;;;12.26;72.33;101292.63;5034135;28;20175;-65
2021/05/30 01:33:12;;;;;;;4.68;3.17;;;;;;;12.23;72.50;101288.41;5034823;28;20039;-65
2021/05/30 01:35:55;;;;;;;4.75;3.42;;;;;;;12.15;72.93;101292.69;5033502;28;20080;-65
2021/05/30 01:38:40;;;;;;;3.85;3.22;;;;;;;12.14;73.47;101305.25;5034341;28;20686;-64
2021/05/30 01:41:24;;;;;;;4.13;3.05;;;;;;;12.10;73.41;101302.94;5033583;28;20056;-65
2021/05/30 01:44:08;;;;;;;5.57;3.38;;;;;;;12.04;73.34;101304.31;5033324;28;20565;-64
2021/05/30 01:46:52;;;;;;;7.65;3.25;;;;;;;11.96;73.69;101293.41;5033591;28;20094;-65
2021/05/30 01:49:36;;;;;;;4.40;3.70;;;;;;;11.96;74.13;101290.72;5034233;28;20133;-64
2021/05/30 01:52:20;;;;;;;4.55;3.13;;;;;;;11.94;73.93;101291.84;5033252;28;20560;-65
2021/05/30 01:55:05;;;;;;;6.60;3.45;;;;;;;11.93;74.00;101288.31;5034380;28;20144;-65
2021/05/30 01:57:52;;;;;;;5.60;3.28;;;;;;;11.87;74.37;101294.16;5032910;28;20509;-64
2021/05/30 02:00:36;;;;;;;6.32;3.35;;;;;;;11.85;74.91;101292.59;5018133;28;20053;-64
2021/05/30 02:03:21;;;;;;;4.93;3.40;;;;;;;11.80;74.80;101294.81;5033198;28;20048;-65
2021/05/30 02:06:05;;;;;;;3.78;3.22;;;;;;;11.77;75.08;101300.41;5033091;28;20098;-65
2021/05/30 02:08:49;;;;;;;4.72;3.42;;;;;;;11.70;75.44;101300.09;5032890;28;20048;-65
2021/05/30 02:11:34;;;;;;;8.52;3.97;;;;;;;11.70;75.11;101301.91;5032833;28;20056;-65
2021/05/30 02:14:18;;;;;;;5.22;3.70;;;;;;;11.63;75.45;101306.91;5033261;28;20548;-65
2021/05/30 02:17:03;;;;;;;6.78;3.60;;;;;;;11.59;75.72;101304.59;5033986;28;20275;-64
2021/05/30 02:19:47;;;;;;;5.68;3.70;;;;;;;11.55;76.06;101314.66;5032958;28;20044;-65
2021/05/30 02:22:31;;;;;;;5.70;3.30;;;;;;;11.53;76.39;101311.25;5032560;28;20513;-65
2021/05/30 02:25:15;;;;;;;7.75;3.95;;;;;;;11.48;76.48;101313.44;5033558;28;20464;-65
2021/05/30 02:27:59;;;;;;;7.28;3.95;;;;;;;11.45;76.65;101313.69;5032672;28;20055;-64
2021/05/30 02:30:43;;;;;;;5.18;4.05;;;;;;;11.42;77.24;101316.63;5033773;28;20107;-65
2021/05/30 02:33:27;;;;;;;5.35;4.10;;;;;;;11.41;77.18;101316.75;5033519;28;20041;-64
2021/05/30 02:36:11;;;;;;;6.22;3.90;;;;;;;11.37;77.51;101320.66;5033710;28;20048;-65
2021/05/30 02:38:55;;;;;;;4.75;3.90;;;;;;;11.32;78.10;101321.00;5032645;28;20080;-65
2021/05/30 02:41:39;;;;;;;5.82;3.72;;;;;;;11.31;78.44;101326.47;5032506;28;20406;-65
2021/05/30 02:44:23;;;;;;;5.38;3.90;;;;;;;11.25;78.45;101319.81;5033587;28;20044;-65
2021/05/30 02:47:07;;;;;;;4.22;3.53;;;;;;;11.21;78.91;101320.16;5032575;28;20048;-65
2021/05/30 02:49:51;;;;;;;5.22;3.80;;;;;;;11.20;78.87;101316.66;5018504;28;20103;-65
2021/05/30 02:52:35;;;;;;;9.30;4.10;;;;;;;11.18;79.27;101321.25;5033550;28;20095;-65
2021/05/30 02:55:19;;;;;;;6.15;4.38;;;;;;;11.14;79.90;101313.63;5034497;28;20574;-65
2021/05/30 02:58:03;;;;;;;5.35;4.18;;;;;;;11.09;80.16;101311.34;5034009;28;20564;-65
2021/05/30 03:00:47;;;;;;;5.63;4.25;;;;;;;11.09;80.44;101315.81;5032107;28;20052;-65
2021/05/30 03:03:31;;;;;;;5.90;3.97;;;;;;;11.05;80.45;101317.03;5032365;28;20081;-65
2021/05/30 03:06:15;;;;;;;7.72;4.50;;;;;;;11.00;81.19;101309.41;5018456;28;20103;-65
2021/05/30 03:08:59;;;;;;;6.10;4.70;;;;;;;10.98;81.40;101324.66;5033309;28;20044;-65
2021/05/30 03:11:43;;;;;;;5.95;4.57;;;;;;;10.93;81.51;101326.84;5019136;28;20060;-65
2021/05/30 03:14:27;;;;;;;6.55;4.80;;;;;;;10.87;82.19;101322.00;5036416;28;20048;-65
2021/05/30 03:17:11;;;;;;;7.68;5.22;;;;;;;10.87;82.37;101327.31;5036323;28;20052;-65
2021/05/30 03:19:55;;;;;;;6.60;4.90;;;;;;;10.88;82.85;101322.84;5037579;28;20103;-65
2021/05/30 03:22:38;;;;;;;7.82;5.13;;;;;;;10.82;83.54;101318.84;5021960;28;20057;-65
2021/05/30 03:25:22;;;;;;;6.43;5.00;;;;;;;10.82;83.58;101326.84;5037281;28;20128;-64
2021/05/30 03:28:06;;;;;;;7.03;5.15;;;;;;;10.78;83.76;101328.06;5021881;28;20191;-65
2021/05/30 03:30:50;;;;;;;7.10;5.25;;;;;;;10.78;84.19;101328.06;5036124;28;20052;-65
2021/05/30 03:33:34;;;;;;;8.88;5.53;;;;;;;10.75;84.57;101328.28;5036061;28;20052;-64
2021/05/30 03:36:29;;;;;;;7.93;5.38;;;;;;;10.75;84.88;101328.28;5022016;28;20048;-65
2021/05/30 03:39:13;;;;;;;;;;;;;;;10.72;84.89;101325.88;5036404;28;20048;-65
2021/05/30 03:42:06;;;;;;;7.88;5.25;;;;;;;10.74;85.28;101329.28;5035788;28;20274;-64
2021/05/30 03:44:50;;;;;;;6.97;5.28;;;;;;;10.74;85.47;101321.25;5035851;28;20086;-65
2021/05/30 03:47:34;;;;;;;7.72;5.20;;;;;;;10.72;85.60;101320.53;5035495;28;20093;-65
2021/05/30 03:50:18;;;;;;;8.57;5.55;;;;;;;10.71;85.78;101326.84;5035757;28;20103;-64
2021/05/30 03:53:02;;;;;;;10.50;5.63;;;;;;;10.72;85.70;101323.22;5035674;28;20490;-65
2021/05/30 03:55:47;;;;;;;;;;;;;;;10.67;86.57;101329.88;5035785;28;20107;-65
2021/05/30 03:58:31;;;;;;;11.15;6.68;;;;;;;10.68;86.40;101327.09;5035155;28;19919;-65
2021/05/30 04:01:14;;;;;;;7.32;5.53;;;;;;;10.75;86.25;101333.63;5036561;28;20236;-65
2021/05/30 04:03:59;;;;;;;10.70;6.32;;;;;;;10.74;86.16;101334.59;5036367;28;20073;-65
2021/05/30 04:06:44;;;;;;;9.48;5.82;;;;;;;10.68;86.41;101332.44;5036189;28;20103;-65
2021/05/30 04:09:31;;;;;;;10.35;5.70;;;;;;;10.72;86.93;101327.69;5035069;28;20048;-64
2021/05/30 04:12:15;;;;;;;12.88;6.82;;;;;;;10.72;86.79;101327.69;5035274;28;20090;-65
2021/05/30 04:14:59;;;;;;;8.20;6.13;;;;;;;10.68;87.08;101331.56;5036447;28;20081;-64
2021/05/30 04:17:44;;;;;;;9.70;6.55;;;;;;;10.74;88.16;101331.09;5021198;28;20049;-64
2021/05/30 04:20:28;;;;;;;11.90;6.95;;;;;;;10.80;87.70;101330.59;5035190;28;20052;-65
2021/05/30 04:23:12;;;;;;;13.45;6.85;;;;;;;10.84;87.80;101340.91;5034666;28;20056;-65
2021/05/30 04:25:57;;;;;;;12.90;7.38;;;;;;;10.88;88.20;101334.34;5036093;28;20403;-65
2021/05/30 04:28:42;;;;;;;9.68;7.18;;;;;;;10.95;87.62;101335.59;5035681;28;20048;-65
2021/05/30 04:31:26;;;;;;;10.85;7.50;;;;;;;10.99;87.68;101330.84;5020874;28;20196;-65
2021/05/30 04:34:10;;;;;;;12.45;7.60;;;;;;;11.01;87.92;101334.25;5034930;28;20558;-65
2021/05/30 04:36:54;;;;;;;13.30;9.38;;;;;;;11.08;87.57;101333.63;5034905;28;20088;-65
2021/05/30 04:39:38;;;;;;;12.63;8.82;;;;;;;11.09;87.24;101332.69;5034594;28;20120;-65
2021/05/30 04:42:22;;;;;;;11.68;8.10;;;;;;;11.21;87.13;101330.84;5020488;28;20091;-63
2021/05/30 04:45:06;;;;;;;11.20;7.97;;;;;;;11.19;87.21;101328.31;5020983;28;20056;-65
2021/05/30 04:47:50;;;;;;;15.60;8.00;;;;;;;11.30;86.84;101330.97;5034571;28;20064;-64
2021/05/30 04:50:34;;;;;;;13.05;7.95;;;;;;;11.32;86.77;101330.84;5034358;28;20053;-65
2021/05/30 04:53:18;;;;;;;12.68;8.23;;;;;;;11.43;86.08;101333.47;5035626;28;20048;-65
2021/05/30 04:56:04;;;;;;;11.75;7.80;;;;;;;11.46;86.23;101331.41;5035539;28;20045;-65
2021/05/30 04:58:49;;;;;;;11.10;8.13;;;;;;;11.50;86.74;101332.88;5035082;28;20096;-65
2021/05/30 05:01:33;;;;;;;12.10;8.35;;;;;;;11.58;86.54;101333.13;5034415;28;20103;-65
2021/05/30 05:04:17;;;;;;;10.88;8.27;;;;;;;11.61;86.00;101327.56;5034285;28;20485;-64
2021/05/30 05:07:01;;;;;;;14.20;8.23;;;;;;;11.69;85.83;101338.44;5035356;28;20052;-65
2021/05/30 05:09:45;;;;;;;13.88;8.70;;;;;;;11.74;85.88;101325.56;5034278;28;20056;-65
2021/05/30 05:12:29;;;;;;;11.88;8.35;;;;;;;11.80;85.40;101335.72;5035218;28;20048;-65
2021/05/30 05:15:13;;;;;;;12.07;8.27;;;;;;;11.89;85.13;101337.63;5035432;28;20097;-65
2021/05/30 05:17:57;;;;;;;13.02;8.50;;;;;;;12.00;85.02;101334.09;5034034;28;20128;-64
2021/05/30 05:20:42;;;;;;;16.10;8.60;;;;;;;12.07;84.71;101330.78;5033815;28;20051;-65
2021/05/30 05:23:26;;;;;;;11.50;8.15;;;;;;;12.21;83.79;101333.13;5019925;28;20620;-65
2021/05/30 05:26:11;;;;;;;12.10;8.00;;;;;;;12.25;83.52;101333.72;5033961;28;20087;-65
2021/05/30 05:28:55;;;;;;;14.35;8.20;;;;;;;12.33;83.56;101337.47;5034631;28;20136;-64
2021/05/30 05:31:39;;;;;;;13.80;8.02;;;;;;;12.39;83.50;101334.25;5033617;28;20064;-65
2021/05/30 05:34:23;;;;;;;12.13;8.20;;;;;;;12.50;82.90;101336.03;5033286;28;20123;-65
2021/05/30 05:37:07;;;;;;;9.93;7.28;;;;;;;12.59;82.76;101333.41;5034032;28;20140;-64
2021/05/30 05:39:50;;;;;;;15.00;8.35;;;;;;;12.69;81.63;101334.31;5034587;28;20091;-65
2021/05/30 05:42:36;;;;;;;12.48;8.90;;;;;;;12.74;81.16;101328.56;5033784;28;20564;-65
2021/05/30 05:45:20;;;;;;;11.05;8.00;;;;;;;12.79;80.95;101329.84;5033605;28;20064;-65
2021/05/30 05:48:15;;;;;;;10.38;7.20;;;;;;;12.86;80.51;101331.03;5033254;28;20072;-65
2021/05/30 05:50:59;;;;;;;;;;;;;;;12.93;79.08;101330.41;5033942;28;20528;-65
2021/05/30 05:53:43;;;;;;;9.38;6.20;;;;;;;13.06;78.40;101333.69;5034662;28;20417;-65
2021/05/30 05:56:27;;;;;;;8.95;6.20;;;;;;;13.15;77.70;101326.69;5034352;28;20049;-65
2021/05/30 05:59:11;;;;;;;8.48;5.82;;;;;;;13.25;77.38;101335.63;5032838;28;20056;-65
2021/05/30 06:01:55;;;;;;;15.80;13.40;;;;;;;13.34;77.59;101337.47;5033941;28;20162;-64
2021/05/30 06:04:41;;;;;;;10.02;8.93;;;;;;;13.39;76.68;101340.59;5033098;28;20510;-65
2021/05/30 06:07:26;;;;;;;10.40;6.68;;;;;;;13.46;76.57;101339.06;5033021;28;20072;-66
2021/05/30 06:10:11;;;;;;;7.78;6.47;;;;;;;13.61;74.23;101343.03;5018992;28;20136;-65
2021/05/30 06:13:00;;;;;;;10.95;8.15;;;;;;;13.70;74.10;101344.88;5033467;28;20048;-66
2021/05/30 06:15:44;;;;;;;7.18;5.63;;;;;;;13.75;73.50;101339.97;5018761;28;20505;-64
2021/05/30 06:18:28;;;;;;;8.68;6.55;;;;;;;13.79;71.65;101342.22;5032133;28;20055;-65
2021/05/30 06:21:12;;;;;;;12.00;5.90;;;;;;;13.91;73.09;101342.94;5033112;28;20525;-65
2021/05/30 06:23:56;;;;;;;7.18;5.95;;;;;;;14.00;71.60;101350.16;5033201;28;20067;-65
2021/05/30 06:26:40;;;;;;;7.65;5.18;;;;;;;14.06;70.77;101350.44;5032209;28;20079;-64
2021/05/30 06:29:24;;;;;;;7.55;5.53;;;;;;;14.16;69.45;101340.56;5032084;28;20076;-65
2021/05/30 06:32:08;;;;;;;12.63;8.50;;;;;;;14.26;69.76;101343.28;5032052;28;20052;-64
2021/05/30 06:34:51;;;;;;;7.75;5.47;;;;;;;14.31;69.11;101354.44;5032879;28;20076;-65
2021/05/30 06:37:35;;;;;;;9.00;5.15;;;;;;;14.39;67.39;101357.25;5033065;28;20056;-64
2021/05/30 06:40:19;;;;;;;6.53;4.82;;;;;;;14.48;67.14;101351.84;5033111;28;20468;-64
2021/05/30 06:43:03;;;;;;;12.52;9.30;;;;;;;14.54;67.07;101345.06;5017762;28;20052;-65
2021/05/30 06:45:47;;;;;;;9.60;7.57;;;;;;;14.65;67.01;101348.47;5031744;28;20457;-65
2021/05/30 06:48:31;;;;;;;9.85;6.82;;;;;;;14.72;67.37;101343.34;5032799;28;20085;-65
2021/05/30 06:51:16;;;;;;;9.90;7.20;;;;;;;14.84;65.87;101342.19;5031906;28;20056;-64
2021/05/30 06:54:02;;;;;;;7.63;5.30;;;;;;;14.91;65.21;101348.69;5032801;28;20134;-65
2021/05/30 06:56:46;;;;;;;6.55;4.38;;;;;;;14.94;66.12;101343.88;5032783;28;20049;-65
2021/05/30 06:59:30;;;;;;;8.30;5.05;;;;;;;14.97;65.09;101343.56;5032517;28;20133;-64
2021/05/30 07:02:15;;;;;;;10.68;6.05;;;;;;;15.04;66.45;101341.13;5017558;28;20444;-65
2021/05/30 07:04:59;;;;;;;10.43;8.90;;;;;;;15.13;65.13;101342.94;5031747;28;20088;-65
2021/05/30 07:07:43;;;;;;;9.63;8.13;;;;;;;15.22;65.55;101345.56;5031506;28;20402;-65
2021/05/30 07:10:27;;;;;;;7.55;4.78;;;;;;;15.34;64.93;101343.59;5031953;28;20056;-65
2021/05/30 07:13:11;;;;;;;16.52;12.07;;;;;;;15.36;63.81;101344.28;5032480;28;20510;-65
2021/05/30 07:15:55;;;;;;;11.02;8.20;;;;;;;15.51;63.46;101334.75;5031634;28;20103;-65
2021/05/30 07:18:40;;;;;;;6.57;5.15;;;;;;;15.55;62.88;101338.81;5032442;28;20080;-65
2021/05/30 07:21:24;;;;;;;6.72;5.35;;;;;;;15.61;62.15;101346.28;5031899;28;20401;-65
2021/05/30 07:24:08;;;;;;;6.35;4.32;;;;;;;15.67;61.16;101344.66;5032539;28;20048;-65
2021/05/30 07:26:51;;;;;;;6.03;4.00;;;;;;;15.71;61.37;101345.22;5031592;28;20048;-65
2021/05/30 07:29:35;;;;;;;7.60;5.43;;;;;;;15.79;61.35;101353.38;5032328;28;20099;-64
2021/05/30 07:32:19;;;;;;;10.02;4.28;;;;;;;15.84;60.80;101343.00;5032522;28;20049;-65
2021/05/30 07:35:04;;;;;;;8.00;4.57;;;;;;;15.94;61.75;101350.00;5032420;28;20505;-64
2021/05/30 07:37:48;;;;;;;5.35;4.30;;;;;;;16.01;59.94;101351.09;5032320;28;20076;-64
2021/05/30 07:40:33;;;;;;;6.38;4.00;;;;;;;16.04;60.51;101348.09;5031162;28;20056;-64
2021/05/30 07:43:17;;;;;;;6.47;3.47;;;;;;;16.10;60.50;101341.25;5031267;28;20517;-65
2021/05/30 07:46:01;;;;;;;7.68;5.50;;;;;;;16.19;61.35;101346.53;5032384;28;20474;-65
2021/05/30 07:48:45;;;;;;;17.15;11.40;;;;;;;16.28;57.63;101345.63;5031217;28;20525;-65
2021/05/30 07:51:29;;;;;;;7.47;5.25;;;;;;;16.41;58.13;101347.97;5032319;28;20112;-65
2021/05/30 07:54:13;;;;;;;5.97;4.43;;;;;;;16.50;57.88;101338.94;5032518;28;20045;-65
2021/05/30 07:56:56;;;;;;;7.47;4.70;;;;;;;16.59;56.53;101341.53;5031232;28;20064;-64
2021/05/30 07:59:40;;;;;;;8.23;7.20;;;;;;;16.67;56.96;101336.22;5034999;28;20064;-65
2021/05/30 08:02:25;;;;;;;5.80;5.20;;;;;;;16.75;55.78;101338.97;5034539;28;20552;-64
2021/05/30 08:05:11;;;;;;;4.90;3.55;;;;;;;16.84;54.91;101329.94;5035857;28;20052;-64
2021/05/30 08:07:55;;;;;;;5.57;4.25;;;;;;;17.00;55.32;101331.91;5034659;28;20417;-65
2021/05/30 08:10:40;;;;;;;5.68;5.10;;;;;;;17.06;54.28;101340.19;5034776;28;20052;-64
2021/05/30 08:13:24;;;;;;;7.28;6.25;;;;;;;17.13;54.22;101341.25;5034916;28;20133;-65
2021/05/30 08:16:08;;;;;;;4.63;3.55;;;;;;;17.18;54.00;101335.38;5020867;28;20088;-65
2021/05/30 08:18:51;;;;;;;4.72;3.95;;;;;;;17.27;54.70;101339.75;5035297;28;20107;-62
2021/05/30 08:21:36;;;;;;;9.52;6.75;;;;;;;17.38;53.70;101339.53;5034977;28;20146;-65
2021/05/30 08:24:20;;;;;;;9.30;4.30;;;;;;;17.40;53.66;101341.03;5035453;28;20142;-65
2021/05/30 08:27:05;;;;;;;5.07;4.55;;;;;;;17.59;53.03;101334.56;5035541;28;20136;-63
2021/05/30 08:29:49;;;;;;;8.65;4.40;;;;;;;17.64;53.23;101338.47;5035382;28;20102;-64
2021/05/30 08:32:33;;;;;;;5.57;4.18;;;;;;;17.71;52.56;101352.13;5035383;28;20040;-65
2021/05/30 08:35:17;;;;;;;7.28;5.38;;;;;;;17.83;51.59;101343.53;5034003;28;20506;-64
2021/05/30 08:38:01;;;;;;;5.75;4.60;;;;;;;17.96;51.70;101337.69;5034110;28;20510;-65
2021/05/30 08:40:44;;;;;;;10.60;7.70;;;;;;;18.05;51.13;101347.47;5034204;28;20052;-65
2021/05/30 08:43:28;;;;;;;9.18;7.00;;;;;;;18.09;49.89;101346.97;5033901;28;20110;-65
2021/05/30 08:46:13;;;;;;;20.63;14.40;;;;;;;18.11;50.76;101336.84;5034079;28;20099;-65
2021/05/30 08:48:58;;;;;;;28.48;17.90;;;;;;;18.23;52.82;101346.31;5034016;28;20151;-64
2021/05/30 08:51:42;;;;;;;10.57;7.30;;;;;;;18.32;51.27;101339.94;5033991;28;20052;-65
2021/05/30 08:54:29;;;;;;;7.00;4.82;;;;;;;18.47;50.53;101332.88;5033909;28;20090;-65
2021/05/30 08:57:13;;;;;;;5.13;3.90;;;;;;;18.58;50.65;101335.22;5034581;28;20123;-65
2021/05/30 08:59:58;;;;;;;14.90;8.10;;;;;;;18.70;50.77;101350.94;5033942;28;20079;-65
2021/05/30 09:02:42;;;;;;;7.18;5.25;;;;;;;18.74;48.70;101338.75;5019992;28;20080;-64
2021/05/30 09:05:35;;;;;;;5.22;4.18;;;;;;;18.88;48.45;101337.22;5019693;28;20128;-65
2021/05/30 09:08:32;;;;;;;12.18;6.97;;;;;;;19.03;47.58;101336.34;5034467;28;20044;-65
2021/05/30 09:11:51;;;;;;;10.27;5.97;;;;;;;19.16;46.15;101331.22;5033399;28;20052;-65
2021/05/30 09:14:41;;;;;;;8.27;5.05;;;;;;;19.28;46.15;101334.44;5019464;28;20100;-65
2021/05/30 09:17:25;;;;;;;4.90;4.05;;;;;;;19.36;46.31;101326.28;5034485;28;20095;-65
2021/05/30 09:20:10;;;;;;;5.88;3.47;;;;;;;19.59;48.05;101322.63;5034469;28;20059;-64
2021/05/30 09:22:54;;;;;;;4.18;3.78;;;;;;;19.69;46.36;101315.13;5033435;28;20056;-65
2021/05/30 09:25:38;;;;;;;6.55;4.20;;;;;;;19.83;44.51;101324.34;5034196;28;20191;-65
2021/05/30 09:28:22;;;;;;;6.95;5.40;;;;;;;20.03;46.04;101325.59;5034146;28;20048;-65
2021/05/30 09:31:06;;;;;;;5.70;4.25;;;;;;;20.23;42.85;101321.41;5033043;28;20472;-65
2021/05/30 09:33:50;;;;;;;12.25;7.93;;;;;;;20.29;41.37;101321.53;5033280;28;20516;-65
2021/05/30 09:36:50;;;;;;;16.98;9.52;;;;;;;20.53;42.21;101323.19;5033157;28;20522;-65
2021/05/30 09:39:40;;;;;;;9.48;6.75;;;;;;;20.60;100.00;81627.66;5032750;28;20048;-64
2021/05/30 09:42:33;;;;;;;8.52;6.20;;;;;;;20.60;41.10;101314.13;5033776;28;20044;-65
2021/05/30 09:45:18;;;;;;;11.40;6.85;;;;;;;21.00;40.11;101305.63;5032983;28;20048;-64
2021/05/30 09:48:03;;;;;;;8.70;5.95;;;;;;;21.04;38.38;101319.66;5033779;28;20052;-65
2021/05/30 09:51:02;;;;;;;5.05;3.22;;;;;;;21.06;38.61;101304.91;5033807;28;20521;-65
2021/05/30 09:53:46;;;;;;;5.32;3.30;;;;;;;21.27;38.83;101307.69;5020922;28;20107;-65
2021/05/30 09:56:44;;;;;;;9.25;3.70;;;;;;;21.47;36.85;101309.63;5033502;28;20047;-65
2021/05/30 09:59:36;;;;;;;6.85;5.10;;;;;;;21.70;37.04;101313.06;5032374;28;20187;-64
2021/05/30 10:02:20;;;;;;;6.18;4.35;;;;;;;21.89;34.46;101298.06;5018305;28;20087;-65
2021/05/30 10:05:04;;;;;;;5.32;4.18;;;;;;;22.26;32.97;101306.78;5018665;28;20052;-65
2021/05/30 10:07:49;;;;;;;5.22;3.08;;;;;;;22.77;32.36;101308.31;5018702;28;20056;-65
2021/05/30 10:10:33;;;;;;;4.38;2.92;;;;;;;23.19;32.69;101304.63;5032459;28;20056;-65
2021/05/30 10:13:17;;;;;;;2.55;2.30;;;;;;;23.69;31.49;101305.09;5032385;28;20045;-65
2021/05/30 10:16:01;;;;;;;5.40;4.20;;;;;;;24.30;30.46;101301.28;5032133;28;20052;-65
2021/05/30 10:18:51;;;;;;;3.35;2.38;;;;;;;24.81;28.04;101299.63;5033266;28;20180;-65
2021/05/30 10:21:40;;;;;;;8.48;6.22;;;;;;;25.81;27.53;101298.91;5017605;28;20088;-66
2021/05/30 10:24:24;;;;;;;3.40;2.67;;;;;;;26.98;27.24;101304.38;5031916;28;20088;-66
2021/05/30 10:27:16;;;;;;;;;;;;;;;28.16;24.58;101282.69;5032608;28;20103;-66
2021/05/30 10:30:06;;;;;;;5.07;3.40;;;;;;;30.43;23.92;101288.38;5032249;28;20344;-63
2021/05/30 10:33:09;;;;;;;3.80;3.28;;;;;;;31.93;20.30;101279.53;5031850;28;20048;-66
2021/05/30 10:35:56;;;;;;;6.35;3.50;;;;;;;33.05;19.39;101270.88;5033140;28;20060;-66
2021/05/30 10:38:45;;;;;;;3.22;2.80;;;;;;;34.36;18.59;101271.09;5032731;28;20052;-65
2021/05/30 10:41:29;;;;;;;4.15;2.35;;;;;;;35.71;17.65;101268.09;5033268;28;20091;-65
2021/05/30 10:44:51;;;;;;;3.92;2.80;;;;;;;37.27;15.55;101254.59;5031714;28;20215;-66
2021/05/30 10:47:45;;;;;;;2.90;2.17;;;;;;;36.59;16.15;101266.97;5032655;28;20094;-66
2021/05/30 10:51:13;;;;;;;7.18;2.50;;;;;;;35.98;15.09;101262.09;5032656;28;20052;-65
2021/05/30 10:54:16;;;;;;;4.53;2.65;;;;;;;36.22;14.93;101261.13;5032615;28;20096;-65
2021/05/30 10:56:59;;;;;;;3.13;2.63;;;;;;;37.11;15.25;101256.75;5017757;28;20099;-66
2021/05/30 10:59:43;;;;;;;6.07;2.90;;;;;;;37.71;14.42;101257.94;5032556;28;20118;-65
2021/05/30 11:02:27;;;;;;;3.03;2.17;;;;;;;38.07;14.26;101247.94;5031660;28;20071;-65
2021/05/30 11:05:43;;;;;;;3.83;2.40;;;;;;;38.83;13.62;101256.75;5032725;28;20095;-63
2021/05/30 11:08:30;;;;;;;3.53;2.33;;;;;;;38.75;13.85;101254.63;5031486;28;20044;-63
2021/05/30 11:11:27;;;;;;;2.80;2.50;;;;;;;38.95;13.84;101243.13;5032726;28;20103;-62
2021/05/30 11:14:14;;;;;;;4.07;2.80;;;;;;;39.04;14.07;101235.69;5031471;28;20044;-63
2021/05/30 11:16:58;;;;;;;4.85;2.90;;;;;;;36.92;15.01;101241.06;5031648;28;20391;-64
2021/05/30 11:19:42;;;;;;;2.92;2.65;;;;;;;34.73;16.89;101248.69;5032633;28;20422;-63
2021/05/30 11:22:26;;;;;;;4.32;2.53;;;;;;;33.04;17.25;101238.84;5031531;28;20132;-65
2021/05/30 11:25:11;;;;;;;15.30;12.10;;;;;;;32.32;18.87;101245.19;5031237;28;20417;-65
2021/05/30 11:27:59;;;;;;;5.40;4.15;;;;;;;32.77;18.66;101242.81;5031473;28;20072;-65
2021/05/30 11:31:01;;;;;;;4.85;2.83;;;;;;;33.36;19.15;101248.66;5032285;28;20079;-65
2021/05/30 11:34:06;;;;;;;10.13;5.63;;;;;;;32.99;19.35;101238.78;5033917;28;20124;-66
2021/05/30 11:37:10;;;;;;;5.07;3.85;;;;;;;34.17;16.88;101233.16;5036298;28;20044;-66
2021/05/30 11:39:55;;;;;;;15.85;11.68;;;;;;;35.76;16.32;101226.47;5035493;28;20044;-65
2021/05/30 11:42:39;;;;;;;5.30;3.88;;;;;;;36.55;15.20;101213.09;5035281;28;20049;-65
2021/05/30 11:45:38;;;;;;;4.13;3.20;;;;;;;37.00;14.27;101216.25;5036071;28;20123;-63
2021/05/30 11:48:24;;;;;;;5.82;3.72;;;;;;;37.18;14.54;101220.22;5036020;28;20057;-62
2021/05/30 11:51:08;;;;;;;4.85;3.10;;;;;;;37.47;14.75;101220.97;5035902;28;20098;-63
2021/05/30 11:53:53;;;;;;;5.35;2.58;;;;;;;38.17;14.43;101219.94;5034922;28;20048;-63
2021/05/30 11:56:41;;;;;;;5.90;3.55;;;;;;;39.15;13.38;101198.94;5035916;28;20492;-63
2021/05/30 11:59:33;;;;;;;5.72;2.53;;;;;;;38.82;12.42;101204.91;5035666;28;20446;-63
2021/05/30 12:02:31;;;;;;;7.15;3.97;;;;;;;38.58;13.08;101215.34;5035029;28;20485;-63
2021/05/30 12:05:16;;;;;;;8.02;4.93;;;;;;;38.38;13.78;101210.13;5020748;28;20052;-63
2021/05/30 12:08:14;;;;;;;3.45;2.10;;;;;;;38.48;12.52;101209.97;5034720;28;20088;-63
2021/05/30 12:11:00;;;;;;;2.70;2.13;;;;;;;39.15;12.14;101206.47;5035673;28;20048;-63
2021/05/30 12:13:44;;;;;;;5.88;3.15;;;;;;;39.37;12.13;101203.78;5034972;28;20084;-63
2021/05/30 12:16:28;;;;;;;3.92;2.40;;;;;;;39.31;12.23;101200.28;5035420;28;20122;-62
2021/05/30 12:19:12;;;;;;;4.07;2.90;;;;;;;38.91;11.84;101198.28;5035435;28;20057;-63
2021/05/30 12:21:55;;;;;;;3.10;2.67;;;;;;;38.74;12.92;101197.22;5035394;28;20056;-63
2021/05/30 12:24:39;;;;;;;3.83;2.70;;;;;;;38.44;12.51;101200.56;5034751;28;20087;-63
2021/05/30 12:27:25;;;;;;;3.10;2.30;;;;;;;38.58;12.98;101190.28;5035295;28;20044;-63
2021/05/30 12:30:18;;;;;;;3.30;3.00;;;;;;;39.06;12.81;101195.22;5034470;28;20103;-63
2021/05/30 12:33:02;;;;;;;3.50;2.58;;;;;;;38.64;12.27;101186.25;5034181;28;20040;-63
2021/05/30 12:35:48;;;;;;;4.65;2.53;;;;;;;38.34;12.80;101193.19;5034322;28;20053;-63
2021/05/30 12:38:32;;;;;;;2.28;2.08;;;;;;;37.91;12.87;101185.25;5035229;28;20052;-63
2021/05/30 12:41:15;;;;;;;2.53;2.20;;;;;;;37.96;11.86;101185.19;5034024;28;20384;-63
2021/05/30 12:44:11;;;;;;;5.63;2.33;;;;;;;38.63;12.22;101168.69;5034374;28;20099;-64
2021/05/30 12:47:01;;;;;;;3.67;2.30;;;;;;;39.01;11.82;101166.59;5019910;28;20052;-63
2021/05/30 12:50:01;;;;;;;4.22;2.53;;;;;;;39.22;12.15;101167.81;5034984;28;20045;-64
2021/05/30 12:52:54;;;;;;;2.65;2.42;;;;;;;39.05;12.26;101170.41;5034763;28;20114;-63